createdAt,value
2023-05-05T00:01:34.856Z,22.10
2023-05-05T00:04:36.673Z,24.30
2023-05-05T00:07:38.673Z,20.30
2023-05-05T00:10:40.856Z,19.80
2023-05-05T00:13:42.771Z,19.90
2023-05-05T00:16:44.866Z,19.20
2023-05-05T00:19:46.928Z,19.20
2023-05-05T00:22:48.994Z,20.40
2023-05-05T00:25:50.920Z,17.80
2023-05-05T00:28:52.657Z,19.30
2023-05-05T00:31:54.601Z,20.50
2023-05-05T00:34:56.742Z,22.40
2023-05-05T00:37:58.875Z,21.20
2023-05-05T00:41:01.003Z,23.60
2023-05-05T00:44:02.978Z,24.50
2023-05-05T00:47:05.441Z,24.00
2023-05-05T00:50:08.719Z,25.30
2023-05-05T00:53:12.076Z,26.30
2023-05-05T00:56:15.640Z,28.70
2023-05-05T00:59:17.775Z,27.70
2023-05-05T01:02:19.491Z,24.60
2023-05-05T01:05:22.904Z,24.80
2023-05-05T01:08:27.539Z,25.90
2023-05-05T01:12:19.612Z,24.20
2023-05-05T01:15:34.237Z,27.00
2023-05-05T01:18:46.383Z,28.20
2023-05-05T01:21:52.168Z,26.10
2023-05-05T01:25:25.781Z,26.50
2023-05-05T01:28:33.825Z,27.10
2023-05-05T01:32:11.338Z,25.90
2023-05-05T01:35:21.073Z,23.70
2023-05-05T01:38:26.647Z,23.80
2023-05-05T01:41:49.155Z,23.50
2023-05-05T01:44:52.463Z,24.70
2023-05-05T01:47:55.861Z,22.80
2023-05-05T01:50:57.861Z,23.60
2023-05-05T01:54:01.893Z,23.60
2023-05-05T01:57:05.955Z,22.20
2023-05-05T02:00:08.828Z,22.00
2023-05-05T02:03:12.401Z,23.20
2023-05-05T02:06:14.933Z,25.20
2023-05-05T02:09:17.118Z,25.70
2023-05-05T02:12:24.825Z,22.10
2023-05-05T02:15:28.021Z,21.00
2023-05-05T02:18:31.209Z,23.20
2023-05-05T02:21:34.170Z,23.70
2023-05-05T02:24:36.389Z,25.00
2023-05-05T02:27:41.805Z,25.90
2023-05-05T02:30:55.992Z,27.50
2023-05-05T02:34:00.579Z,24.60
2023-05-05T02:37:07.088Z,24.20
2023-05-05T02:40:10.199Z,23.40
2023-05-05T02:43:17.081Z,24.90
2023-05-05T02:46:19.413Z,26.20
2023-05-05T02:49:21.282Z,27.90
2023-05-05T02:52:24.031Z,26.10
2023-05-05T02:55:39.896Z,24.00
2023-05-05T02:58:53.104Z,27.80
2023-05-05T03:02:08.464Z,28.90
2023-05-05T03:05:13.010Z,24.80
2023-05-05T03:08:24.645Z,23.30
2023-05-05T03:11:30.812Z,23.60
2023-05-05T03:14:37.536Z,23.80
2023-05-05T03:17:44.632Z,25.60
2023-05-05T03:20:47.339Z,23.10
2023-05-05T03:23:58.486Z,22.20
2023-05-05T03:27:00.802Z,21.60
2023-05-05T03:30:02.761Z,21.50
2023-05-05T03:33:04.727Z,22.90
2023-05-05T03:36:06.743Z,24.90
2023-05-05T03:39:09.019Z,24.80
2023-05-05T03:42:10.921Z,28.50
2023-05-05T03:45:13.200Z,26.50
2023-05-05T03:48:15.230Z,27.30
2023-05-05T03:51:17.384Z,24.40
2023-05-05T03:54:19.153Z,25.80
2023-05-05T03:57:21.103Z,26.00
2023-05-05T04:00:23.608Z,23.30
2023-05-05T04:03:26.090Z,23.50
2023-05-05T04:06:28.551Z,27.30
2023-05-05T04:09:30.774Z,25.10
2023-05-05T04:12:32.663Z,27.30
2023-05-05T04:15:35.010Z,28.70
2023-05-05T04:18:37.312Z,23.80
2023-05-05T04:21:39.260Z,24.70
2023-05-05T04:24:41.438Z,25.70
2023-05-05T04:27:43.752Z,24.20
2023-05-05T04:30:45.768Z,25.70
2023-05-05T04:33:47.444Z,26.40
2023-05-05T04:36:49.238Z,27.40
2023-05-05T04:39:51.886Z,27.60
2023-05-05T04:42:53.815Z,28.80
2023-05-05T04:45:56.043Z,28.50
2023-05-05T04:48:58.908Z,27.60
2023-05-05T04:52:00.667Z,28.80
2023-05-05T04:55:03.300Z,32.70
2023-05-05T04:58:05.622Z,26.60
2023-05-05T05:01:07.497Z,34.90
2023-05-05T05:04:09.604Z,30.50
2023-05-05T05:07:11.408Z,31.80
2023-05-05T05:10:13.384Z,33.70
2023-05-05T05:13:15.134Z,33.20
2023-05-05T05:16:17.356Z,32.10
2023-05-05T05:19:19.341Z,32.10
2023-05-05T05:22:21.103Z,30.50
2023-05-05T05:25:23.650Z,29.90
2023-05-05T05:28:25.539Z,30.70
2023-05-05T05:34:10.721Z,30.90
2023-05-05T05:37:14.332Z,30.10
2023-05-05T05:40:16.684Z,27.80
2023-05-05T05:43:18.464Z,28.90
2023-05-05T05:46:20.323Z,28.00
2023-05-05T05:49:22.263Z,27.40
2023-05-05T05:52:24.021Z,29.40
2023-05-05T05:55:26.472Z,28.30
2023-05-05T05:58:28.261Z,30.30
2023-05-05T06:01:30.111Z,24.50
2023-05-05T06:04:32.248Z,25.70
2023-05-05T06:07:34.242Z,24.50
2023-05-05T06:10:36.422Z,23.70
2023-05-05T06:13:38.649Z,23.20
2023-05-05T06:16:40.711Z,23.90
2023-05-05T06:19:42.468Z,28.20
2023-05-05T06:22:44.209Z,25.10
2023-05-05T06:25:46.236Z,25.00
2023-05-05T06:28:48.295Z,23.90
2023-05-05T06:31:50.087Z,23.20
2023-05-05T06:34:52.242Z,21.00
2023-05-05T06:37:54.036Z,22.40
2023-05-05T06:40:55.950Z,22.30
2023-05-05T06:43:57.626Z,21.70
2023-05-05T06:46:59.720Z,20.50
2023-05-05T06:50:01.877Z,20.70
2023-05-05T06:53:03.623Z,19.30
2023-05-05T06:56:05.580Z,22.20
2023-05-05T06:59:07.750Z,19.90
2023-05-05T07:02:09.592Z,21.50
2023-05-05T07:05:11.699Z,21.50
2023-05-05T07:08:13.415Z,21.30
2023-05-05T07:11:15.858Z,21.80
2023-05-05T07:14:18.657Z,23.00
2023-05-05T07:17:20.455Z,20.90
2023-05-05T07:20:22.671Z,19.40
2023-05-05T07:23:24.404Z,18.80
2023-05-05T07:26:26.347Z,24.30
2023-05-05T07:29:28.244Z,20.90
2023-05-05T07:32:30.087Z,18.70
2023-05-05T07:35:31.888Z,18.40
2023-05-05T07:38:33.591Z,17.00
2023-05-05T07:41:35.410Z,17.90
2023-05-05T07:44:37.213Z,18.80
2023-05-05T07:47:39.201Z,18.00
2023-05-05T07:50:41.222Z,17.60
2023-05-05T07:53:43.080Z,20.20
2023-05-05T07:56:45.244Z,18.40
2023-05-05T07:59:46.951Z,18.30
2023-05-05T08:02:48.898Z,18.10
2023-05-05T08:05:51.786Z,21.10
2023-05-05T08:08:54.821Z,16.20
2023-05-05T08:11:56.858Z,13.10
2023-05-05T08:14:59.055Z,16.40
2023-05-05T08:18:14.784Z,16.70
2023-05-05T08:21:17.350Z,16.20
2023-05-05T08:24:19.194Z,15.70
2023-05-05T08:27:24.900Z,17.00
2023-05-05T08:30:26.808Z,16.70
2023-05-05T08:33:28.966Z,14.70
2023-05-05T08:36:30.776Z,11.50
2023-05-05T08:39:32.771Z,11.40
2023-05-05T08:42:38.409Z,12.40
2023-05-05T08:45:44.772Z,12.70
2023-05-05T08:48:48.701Z,8.20
2023-05-05T08:51:51.030Z,10.80
2023-05-05T08:54:58.030Z,8.70
2023-05-05T08:58:00.575Z,11.50
2023-05-05T09:01:03.035Z,10.70
2023-05-05T09:04:04.995Z,8.10
2023-05-05T09:07:07.453Z,7.20
2023-05-05T09:10:10.526Z,8.20
2023-05-05T09:13:30.419Z,11.20
2023-05-05T09:19:33.877Z,10.20
2023-05-05T09:22:45.267Z,10.60
2023-05-05T09:26:02.661Z,5.60
2023-05-05T09:29:04.883Z,7.80
2023-05-05T09:32:06.816Z,8.30
2023-05-05T09:35:08.901Z,11.20
2023-05-05T09:38:11.792Z,10.30
2023-05-05T09:41:13.848Z,7.30
2023-05-05T09:44:15.488Z,11.20
2023-05-05T09:47:26.341Z,11.30
2023-05-05T09:50:42.905Z,10.70
2023-05-05T09:53:44.615Z,9.80
2023-05-05T09:56:46.620Z,11.40
2023-05-05T09:59:58.690Z,9.80
2023-05-05T10:06:04.553Z,11.00
2023-05-05T10:09:06.179Z,12.40
2023-05-05T10:12:08.259Z,13.20
2023-05-05T10:15:11.892Z,14.40
2023-05-05T10:18:15.192Z,12.80
2023-05-05T10:21:20.420Z,11.50
2023-05-05T10:24:35.333Z,13.20
2023-05-05T10:27:43.309Z,11.10
2023-05-05T10:30:46.209Z,12.40
2023-05-05T10:33:53.323Z,12.90
2023-05-05T10:36:57.419Z,12.90
2023-05-05T10:39:59.310Z,10.50
2023-05-05T10:43:01.137Z,11.50
2023-05-05T10:46:03.345Z,11.20
2023-05-05T10:49:13.976Z,10.00
2023-05-05T10:52:26.161Z,13.40
2023-05-05T10:55:51.071Z,10.70
2023-05-05T10:58:59.797Z,7.80
2023-05-05T11:02:27.524Z,9.60
2023-05-05T11:05:30.186Z,8.50
2023-05-05T11:08:36.640Z,11.70
2023-05-05T11:12:04.589Z,13.00
2023-05-05T11:15:28.491Z,16.50
2023-05-05T11:18:31.292Z,7.70
2023-05-05T11:22:02.077Z,11.70
2023-05-05T11:25:36.741Z,13.20
2023-05-05T11:29:03.015Z,10.30
2023-05-05T11:32:14.155Z,11.20
2023-05-05T11:35:16.019Z,7.90
2023-05-05T11:38:18.446Z,9.90
2023-05-05T11:41:32.453Z,15.10
2023-05-05T11:44:34.965Z,12.10
2023-05-05T11:47:36.837Z,12.10
2023-05-05T11:50:38.732Z,8.80
2023-05-05T11:53:44.951Z,13.10
2023-05-05T11:56:54.341Z,6.30
2023-05-05T12:00:05.538Z,13.20
2023-05-05T12:03:07.643Z,6.40
2023-05-05T12:06:10.071Z,11.10
2023-05-05T12:09:19.521Z,7.70
2023-05-05T12:12:21.891Z,5.20
2023-05-05T12:15:32.916Z,10.60
2023-05-05T12:18:35.087Z,11.80
2023-05-05T12:21:36.974Z,10.00
2023-05-05T12:24:38.668Z,8.40
2023-05-05T12:27:40.352Z,10.20
2023-05-05T12:30:42.038Z,9.20
2023-05-05T12:33:44.121Z,5.90
2023-05-05T12:36:45.886Z,8.50
2023-05-05T12:39:48.747Z,11.10
2023-05-05T12:42:50.453Z,14.00
2023-05-05T12:46:12.387Z,11.30
2023-05-05T12:49:14.763Z,9.40
2023-05-05T12:52:16.591Z,8.80
2023-05-05T12:55:18.572Z,7.10
2023-05-05T12:58:20.199Z,7.00
2023-05-05T13:01:21.986Z,7.70
2023-05-05T13:04:25.324Z,7.30
2023-05-05T13:07:26.907Z,6.30
2023-05-05T13:10:28.500Z,7.00
2023-05-05T13:13:32.137Z,6.60
2023-05-05T13:16:34.204Z,6.50
2023-05-05T13:19:36.006Z,9.20
2023-05-05T13:22:38.671Z,7.60
2023-05-05T13:25:40.746Z,5.00
2023-05-05T13:28:42.436Z,5.80
2023-05-05T13:31:44.948Z,6.20
2023-05-05T13:34:47.428Z,5.30
2023-05-05T13:37:49.257Z,5.30
2023-05-05T13:40:51.136Z,4.20
2023-05-05T13:43:53.108Z,7.40
2023-05-05T13:46:55.023Z,10.30
2023-05-05T13:49:56.856Z,8.30
2023-05-05T13:52:58.804Z,8.20
2023-05-05T13:56:01.041Z,8.70
2023-05-05T13:59:02.778Z,6.80
2023-05-05T14:02:04.419Z,8.00
2023-05-05T14:05:06.938Z,5.40
2023-05-05T14:08:09.799Z,6.50
2023-05-05T14:11:11.534Z,5.50
2023-05-05T14:14:13.495Z,13.60
2023-05-05T14:17:15.128Z,4.60
2023-05-05T14:20:16.822Z,7.20
2023-05-05T14:23:18.605Z,9.00
2023-05-05T14:26:20.544Z,9.20
2023-05-05T14:29:22.234Z,6.10
2023-05-05T14:32:24.714Z,5.80
2023-05-05T14:35:26.815Z,4.40
2023-05-05T14:38:28.888Z,5.50
2023-05-05T14:41:30.648Z,7.80
2023-05-05T14:44:32.365Z,10.60
2023-05-05T14:47:34.538Z,4.60
2023-05-05T14:50:36.505Z,6.80
2023-05-05T14:53:38.863Z,7.40
2023-05-05T14:56:40.938Z,5.20
2023-05-05T14:59:42.528Z,6.60
2023-05-05T15:02:44.422Z,5.10
2023-05-05T15:05:46.355Z,7.80
2023-05-05T15:08:48.219Z,7.10
2023-05-05T15:11:50.088Z,6.80
2023-05-05T15:14:51.909Z,9.00
2023-05-05T15:17:53.582Z,10.10
2023-05-05T15:20:55.251Z,9.30
2023-05-05T15:23:56.916Z,5.60
2023-05-05T15:26:58.882Z,6.40
2023-05-05T15:30:00.583Z,9.20
2023-05-05T15:33:02.693Z,7.90
2023-05-05T15:36:04.964Z,8.80
2023-05-05T15:39:06.693Z,12.40
2023-05-05T15:42:08.331Z,7.70
2023-05-05T15:45:10.811Z,9.50
2023-05-05T15:48:12.873Z,12.40
2023-05-05T15:51:14.594Z,9.40
2023-05-05T15:54:16.262Z,11.30
2023-05-05T15:57:18.238Z,9.60
2023-05-05T16:00:20.325Z,8.70
2023-05-05T16:03:22.130Z,10.00
2023-05-05T16:06:24.229Z,8.50
2023-05-05T16:09:26.201Z,9.80
2023-05-05T16:12:28.118Z,11.70
2023-05-05T16:15:29.821Z,9.00
2023-05-05T16:18:31.687Z,11.70
2023-05-05T16:21:33.315Z,12.80
2023-05-05T16:24:35.054Z,9.30
2023-05-05T16:27:36.785Z,11.20
2023-05-05T16:30:38.462Z,8.40
2023-05-05T16:33:40.390Z,9.20
2023-05-05T16:36:44.156Z,11.80
2023-05-05T16:39:46.273Z,10.60
2023-05-05T16:42:48.236Z,11.10
2023-05-05T16:45:50.054Z,10.30
2023-05-05T16:48:51.789Z,11.10
2023-05-05T16:51:53.567Z,15.80
2023-05-05T16:54:55.234Z,10.40
2023-05-05T16:57:56.961Z,10.60
2023-05-05T17:00:58.727Z,11.70
2023-05-05T17:04:00.884Z,10.40
2023-05-05T17:07:02.508Z,15.20
2023-05-05T17:10:04.563Z,11.20
2023-05-05T17:13:08.504Z,9.90
2023-05-05T17:16:10.315Z,8.90
2023-05-05T17:19:12.004Z,11.90
2023-05-05T17:22:13.699Z,10.60
2023-05-05T17:25:15.737Z,14.40
2023-05-05T17:28:17.342Z,12.50
2023-05-05T17:31:19.094Z,11.40
2023-05-05T17:34:21.133Z,10.00
2023-05-05T17:37:23.248Z,14.80
2023-05-05T17:40:25.164Z,18.10
2023-05-05T17:43:27.239Z,13.80
2023-05-05T17:46:29.016Z,17.70
2023-05-05T17:49:30.993Z,13.50
2023-05-05T17:52:33.087Z,15.10
2023-05-05T17:55:35.324Z,18.00
2023-05-05T17:58:37.417Z,22.90
2023-05-05T18:01:39.324Z,27.50
2023-05-05T18:04:41.442Z,28.70
2023-05-05T18:07:47.386Z,25.70
2023-05-05T18:10:49.349Z,25.40
2023-05-05T18:13:51.285Z,26.90
2023-05-05T18:16:53.274Z,23.40
2023-05-05T18:19:58.449Z,21.20
2023-05-05T18:23:00.740Z,26.90
2023-05-05T18:26:02.912Z,22.40
2023-05-05T18:29:08.077Z,23.90
2023-05-05T18:32:10.439Z,18.90
2023-05-05T18:35:12.473Z,22.80
2023-05-05T18:38:14.999Z,25.00
2023-05-05T18:41:17.028Z,21.30
2023-05-05T18:44:19.216Z,22.30
2023-05-05T18:47:23.399Z,19.40
2023-05-05T18:50:25.232Z,19.90
2023-05-05T18:53:27.530Z,20.00
2023-05-05T18:56:29.544Z,22.00
2023-05-05T18:59:31.529Z,24.70
2023-05-05T19:02:33.700Z,21.60
2023-05-05T19:05:35.917Z,23.60
2023-05-05T19:08:38.495Z,23.20
2023-05-05T19:11:40.875Z,28.90
2023-05-05T19:14:42.701Z,39.20
2023-05-05T19:17:44.627Z,39.70
2023-05-05T19:20:46.676Z,40.30
2023-05-05T19:23:58.334Z,43.10
2023-05-05T19:27:03.192Z,42.70
2023-05-05T19:30:09.204Z,36.60
2023-05-05T19:33:14.934Z,42.50
2023-05-05T19:36:16.699Z,39.10
2023-05-05T19:39:18.749Z,31.80
2023-05-05T19:42:23.081Z,28.20
2023-05-05T19:45:36.466Z,26.00
2023-05-05T19:48:38.663Z,27.70
2023-05-05T19:51:41.682Z,26.30
2023-05-05T19:54:43.603Z,30.10
2023-05-05T19:57:46.272Z,37.20
2023-05-05T20:00:55.655Z,33.50
2023-05-05T20:03:57.605Z,29.70
2023-05-05T20:07:12.361Z,28.50
2023-05-05T20:10:14.401Z,33.50
2023-05-05T20:13:16.571Z,33.40
2023-05-05T20:16:26.391Z,33.40
2023-05-05T20:19:50.541Z,24.40
2023-05-05T20:22:52.787Z,30.30
2023-05-05T20:25:57.253Z,27.70
2023-05-05T20:28:59.826Z,30.10
2023-05-05T20:32:05.473Z,25.70
2023-05-05T20:35:09.947Z,25.10
2023-05-05T20:38:21.093Z,28.80
2023-05-05T20:41:25.534Z,25.80
2023-05-05T20:44:38.685Z,27.10
2023-05-05T20:47:46.266Z,25.50
2023-05-05T20:50:58.863Z,25.90
2023-05-05T20:54:04.147Z,38.10
2023-05-05T20:57:08.938Z,25.90
2023-05-05T21:00:20.047Z,23.00
2023-05-05T21:03:27.995Z,21.30
2023-05-05T21:07:10.364Z,25.10
2023-05-05T21:10:15.771Z,21.20
2023-05-05T21:13:24.112Z,23.00
2023-05-05T21:16:31.203Z,25.00
2023-05-05T21:19:46.926Z,22.80
2023-05-05T21:22:51.286Z,23.30
2023-05-05T21:25:55.967Z,24.30
2023-05-05T21:28:57.980Z,24.60
2023-05-05T21:32:00.278Z,23.30
2023-05-05T21:35:22.563Z,22.80
2023-05-05T21:38:24.422Z,24.90
2023-05-05T21:41:33.871Z,25.50
2023-05-05T21:44:56.813Z,21.40
2023-05-05T21:48:12.523Z,23.40
2023-05-05T21:51:22.020Z,21.50
2023-05-05T21:54:24.444Z,21.10
2023-05-05T21:57:29.511Z,20.90
2023-05-05T22:00:31.383Z,22.10
2023-05-05T22:03:36.375Z,20.20
2023-05-05T22:06:41.074Z,19.50
2023-05-05T22:09:43.676Z,21.40
2023-05-05T22:12:45.999Z,21.80
2023-05-05T22:15:48.047Z,21.10
2023-05-05T22:18:57.564Z,22.50
2023-05-05T22:21:59.646Z,22.50
2023-05-05T22:25:01.492Z,19.30
2023-05-05T22:28:03.911Z,19.90
2023-05-05T22:31:06.320Z,20.30
2023-05-05T22:34:11.441Z,20.50
2023-05-05T22:37:14.209Z,22.40
2023-05-05T22:40:16.643Z,20.50
2023-05-05T22:43:18.821Z,21.10
2023-05-05T22:46:21.072Z,21.60
2023-05-05T22:49:25.897Z,21.50
2023-05-05T22:54:26.326Z,21.70
2023-05-05T22:57:28.352Z,21.80
2023-05-05T23:00:30.540Z,23.10
2023-05-05T23:03:32.859Z,23.70
2023-05-05T23:06:48.153Z,22.10
2023-05-05T23:09:50.482Z,22.80
2023-05-05T23:12:56.075Z,23.30
2023-05-05T23:15:58.358Z,20.30
2023-05-05T23:19:00.442Z,23.50
2023-05-05T23:22:02.714Z,23.10
2023-05-05T23:25:05.146Z,27.00
2023-05-05T23:28:17.002Z,21.50
2023-05-05T23:31:19.168Z,22.30
2023-05-05T23:34:23.783Z,21.60
2023-05-05T23:37:29.683Z,23.10
2023-05-05T23:41:24.563Z,22.40
2023-05-05T23:44:30.038Z,23.10
2023-05-05T23:47:41.381Z,22.90
2023-05-05T23:50:46.422Z,22.60
2023-05-05T23:53:52.166Z,23.10
2023-05-05T23:56:54.771Z,22.90
2023-05-05T23:59:56.803Z,21.50
